createdAt,value
2022-08-19T00:01:38.077Z,64.47
2022-08-19T00:04:09.548Z,80.03
2022-08-19T00:06:38.843Z,74.60
2022-08-19T00:09:08.618Z,62.60
2022-08-19T00:11:38.549Z,60.33
2022-08-19T00:14:10.830Z,58.03
2022-08-19T00:16:39.722Z,52.57
2022-08-19T00:19:08.871Z,58.60
2022-08-19T00:21:39.350Z,56.43
2022-08-19T00:24:08.146Z,51.40
2022-08-19T00:26:37.258Z,52.30
2022-08-19T00:29:08.201Z,48.53
2022-08-19T00:31:37.100Z,47.43
2022-08-19T00:34:05.488Z,52.53
2022-08-19T00:36:34.102Z,54.37
2022-08-19T00:39:03.160Z,53.00
2022-08-19T00:41:31.444Z,53.77
2022-08-19T00:44:01.960Z,64.07
2022-08-19T00:46:32.638Z,61.70
2022-08-19T00:49:02.222Z,57.90
2022-08-19T00:51:33.517Z,60.17
2022-08-19T00:54:03.355Z,66.33
2022-08-19T00:56:32.804Z,59.07
2022-08-19T00:59:03.097Z,61.90
2022-08-19T01:01:32.538Z,61.43
2022-08-19T01:04:01.084Z,63.33
2022-08-19T01:06:29.228Z,60.77
2022-08-19T01:08:57.954Z,59.93
2022-08-19T01:11:25.978Z,54.87
2022-08-19T01:13:55.265Z,53.53
2022-08-19T01:16:27.448Z,70.17
2022-08-19T01:18:57.486Z,53.67
2022-08-19T01:21:33.519Z,56.37
2022-08-19T01:24:03.391Z,59.10
2022-08-19T01:26:31.506Z,57.83
2022-08-19T01:29:02.164Z,64.50
2022-08-19T01:31:33.495Z,54.53
2022-08-19T01:34:03.041Z,49.37
2022-08-19T01:36:33.572Z,59.03
2022-08-19T01:39:05.305Z,59.10
2022-08-19T01:41:33.292Z,60.40
2022-08-19T01:44:03.312Z,60.70
2022-08-19T01:46:46.552Z,66.00
2022-08-19T01:49:14.563Z,61.03
2022-08-19T01:51:42.614Z,51.10
2022-08-19T01:54:14.334Z,55.03
2022-08-19T01:56:52.260Z,58.93
2022-08-19T01:59:24.072Z,60.47
2022-08-19T02:01:52.112Z,54.23
2022-08-19T02:04:20.561Z,57.93
2022-08-19T02:06:49.201Z,52.67
2022-08-19T02:09:19.033Z,53.30
2022-08-19T02:11:47.001Z,64.03
2022-08-19T02:14:14.965Z,58.10
2022-08-19T02:16:43.128Z,66.70
2022-08-19T02:19:11.786Z,59.57
2022-08-19T02:21:39.806Z,56.83
2022-08-19T02:24:08.286Z,54.57
2022-08-19T02:26:37.652Z,57.30
2022-08-19T02:29:06.510Z,56.17
2022-08-19T02:31:34.530Z,51.60
2022-08-19T02:34:03.276Z,50.50
2022-08-19T02:36:32.119Z,49.20
2022-08-19T02:38:59.552Z,52.90
2022-08-19T02:41:29.615Z,46.80
2022-08-19T02:44:29.688Z,46.10
2022-08-19T02:46:51.715Z,40.53
2022-08-19T02:49:22.058Z,47.77
2022-08-19T02:51:50.469Z,40.57
2022-08-19T02:54:18.906Z,46.03
2022-08-19T02:56:47.460Z,41.67
2022-08-19T02:59:17.236Z,44.43
2022-08-19T03:01:45.218Z,48.00
2022-08-19T03:04:16.914Z,43.30
2022-08-19T03:06:47.610Z,39.83
2022-08-19T03:09:16.815Z,37.70
2022-08-19T03:11:45.001Z,39.73
2022-08-19T03:14:14.246Z,38.37
2022-08-19T03:16:45.749Z,43.57
2022-08-19T03:19:15.440Z,41.80
2022-08-19T03:21:45.979Z,37.87
2022-08-19T03:24:15.589Z,36.97
2022-08-19T03:26:45.923Z,45.07
2022-08-19T03:29:14.551Z,44.50
2022-08-19T03:32:01.849Z,43.07
2022-08-19T03:34:31.799Z,40.60
2022-08-19T03:37:05.636Z,40.67
2022-08-19T03:39:34.187Z,40.03
2022-08-19T03:42:29.207Z,45.87
2022-08-19T03:44:51.669Z,36.57
2022-08-19T03:47:21.264Z,38.27
2022-08-19T03:49:49.257Z,43.67
2022-08-19T03:52:17.702Z,39.80
2022-08-19T03:54:46.013Z,44.03
2022-08-19T03:57:14.430Z,45.47
2022-08-19T03:59:42.554Z,41.87
2022-08-19T04:02:13.356Z,42.53
2022-08-19T04:04:45.744Z,47.37
2022-08-19T04:07:17.456Z,45.07
2022-08-19T04:09:45.976Z,46.00
2022-08-19T04:12:14.688Z,44.40
2022-08-19T04:14:43.415Z,44.83
2022-08-19T04:17:12.839Z,46.20
2022-08-19T04:19:43.921Z,44.07
2022-08-19T04:22:13.271Z,41.50
2022-08-19T04:24:41.296Z,41.47
2022-08-19T04:27:09.419Z,37.30
2022-08-19T04:29:40.782Z,40.20
2022-08-19T04:32:09.867Z,39.90
2022-08-19T04:35:02.241Z,39.60
2022-08-19T04:37:35.157Z,39.73
2022-08-19T04:40:22.667Z,39.67
2022-08-19T04:42:51.155Z,40.00
2022-08-19T04:45:19.179Z,38.43
2022-08-19T04:47:58.952Z,34.47
2022-08-19T04:50:43.123Z,33.53
2022-08-19T04:53:13.211Z,35.73
2022-08-19T04:55:42.860Z,33.40
2022-08-19T04:58:10.851Z,29.43
2022-08-19T05:00:41.149Z,32.47
2022-08-19T05:03:09.107Z,32.77
2022-08-19T05:05:44.563Z,29.17
2022-08-19T05:08:31.081Z,29.57
2022-08-19T05:10:59.731Z,28.90
2022-08-19T05:13:28.936Z,32.13
2022-08-19T05:15:59.110Z,33.07
2022-08-19T05:18:45.662Z,35.20
2022-08-19T05:21:35.417Z,28.77
2022-08-19T05:24:09.119Z,32.80
2022-08-19T05:26:37.391Z,28.60
2022-08-19T05:29:06.303Z,34.17
2022-08-19T05:31:35.467Z,32.17
2022-08-19T05:34:04.984Z,31.07
2022-08-19T05:36:47.817Z,31.50
2022-08-19T05:39:21.000Z,26.00
2022-08-19T05:41:53.595Z,34.37
2022-08-19T05:44:23.241Z,30.23
2022-08-19T05:46:53.807Z,35.63
2022-08-19T05:49:23.814Z,32.07
2022-08-19T05:51:52.233Z,34.43
2022-08-19T05:54:22.625Z,33.73
2022-08-19T05:56:51.632Z,31.57
2022-08-19T05:59:20.740Z,31.47
2022-08-19T06:01:51.453Z,33.80
2022-08-19T06:04:21.259Z,33.30
2022-08-19T06:06:53.643Z,40.63
2022-08-19T06:09:24.207Z,36.77
2022-08-19T06:11:56.026Z,35.43
2022-08-19T06:14:28.010Z,33.97
2022-08-19T06:16:56.480Z,34.33
2022-08-19T06:19:26.780Z,31.57
2022-08-19T06:21:55.368Z,50.57
2022-08-19T06:24:27.464Z,30.60
2022-08-19T06:27:00.748Z,34.27
2022-08-19T06:29:31.996Z,28.43
2022-08-19T06:32:01.884Z,33.00
2022-08-19T06:34:32.443Z,33.13
2022-08-19T06:37:02.982Z,33.63
2022-08-19T06:39:35.036Z,37.83
2022-08-19T06:42:07.230Z,34.53
2022-08-19T06:44:43.375Z,36.80
2022-08-19T06:47:23.119Z,37.10
2022-08-19T06:49:55.360Z,37.23
2022-08-19T06:52:29.107Z,37.00
2022-08-19T06:54:59.638Z,30.17
2022-08-19T06:57:28.533Z,40.50
2022-08-19T06:59:57.905Z,37.17
2022-08-19T07:02:27.362Z,36.30
2022-08-19T07:04:56.807Z,35.03
2022-08-19T07:07:25.906Z,32.60
2022-08-19T07:09:58.521Z,36.53
2022-08-19T07:12:32.354Z,33.80
2022-08-19T07:15:00.594Z,31.00
2022-08-19T07:17:30.250Z,38.87
2022-08-19T07:20:06.746Z,32.97
2022-08-19T07:22:35.033Z,29.73
2022-08-19T07:25:04.879Z,33.57
2022-08-19T07:27:34.995Z,30.10
2022-08-19T07:30:03.926Z,32.97
2022-08-19T07:32:32.552Z,34.23
2022-08-19T07:35:01.654Z,28.60
2022-08-19T07:37:33.064Z,27.60
2022-08-19T07:40:02.290Z,28.53
2022-08-19T07:42:31.146Z,29.43
2022-08-19T07:45:01.223Z,35.10
2022-08-19T07:47:49.106Z,26.93
2022-08-19T07:50:20.052Z,29.90
2022-08-19T07:52:48.771Z,29.30
2022-08-19T07:55:42.110Z,31.70
2022-08-19T07:58:08.491Z,30.37
2022-08-19T08:00:38.581Z,31.20
2022-08-19T08:03:06.654Z,25.93
2022-08-19T08:05:52.513Z,29.90
2022-08-19T08:08:44.160Z,29.40
2022-08-19T08:11:20.101Z,27.70
2022-08-19T08:14:01.221Z,28.23
2022-08-19T08:16:39.529Z,27.57
2022-08-19T08:19:22.930Z,33.10
2022-08-19T08:21:55.202Z,28.10
2022-08-19T08:24:22.583Z,27.30
2022-08-19T08:26:58.005Z,30.63
2022-08-19T08:29:26.758Z,26.70
2022-08-19T08:32:14.231Z,24.90
2022-08-19T08:34:43.341Z,25.40
2022-08-19T08:37:11.661Z,30.90
2022-08-19T08:39:39.707Z,26.33
2022-08-19T08:42:17.960Z,23.77
2022-08-19T08:47:27.553Z,25.53
2022-08-19T08:50:01.412Z,25.77
2022-08-19T08:52:36.768Z,25.43
2022-08-19T08:55:14.831Z,26.93
2022-08-19T08:57:52.135Z,28.37
2022-08-19T09:00:23.377Z,26.43
2022-08-19T09:02:53.183Z,25.80
2022-08-19T09:05:26.007Z,26.20
2022-08-19T09:08:03.592Z,24.87
2022-08-19T09:10:43.977Z,22.70
2022-08-19T09:13:23.569Z,21.63
2022-08-19T09:15:57.137Z,26.33
2022-08-19T09:18:26.917Z,25.40
2022-08-19T09:20:58.296Z,26.90
2022-08-19T09:23:26.768Z,30.00
2022-08-19T09:25:55.291Z,26.00
2022-08-19T09:28:27.289Z,33.37
2022-08-19T09:30:55.501Z,29.50
2022-08-19T09:33:23.844Z,27.43
2022-08-19T09:36:04.338Z,29.90
2022-08-19T09:38:37.465Z,34.47
2022-08-19T09:41:14.597Z,34.27
2022-08-19T09:43:47.934Z,35.30
2022-08-19T09:46:18.404Z,41.60
2022-08-19T09:48:49.636Z,36.27
2022-08-19T09:51:21.662Z,40.77
2022-08-19T09:53:54.976Z,38.10
2022-08-19T09:56:24.701Z,40.47
2022-08-19T09:58:52.950Z,40.80
2022-08-19T10:01:24.309Z,34.90
2022-08-19T10:03:55.630Z,35.47
2022-08-19T10:06:43.251Z,34.57
2022-08-19T10:09:15.846Z,36.93
2022-08-19T10:11:54.472Z,40.60
2022-08-19T10:14:23.708Z,41.80
2022-08-19T10:16:52.822Z,33.30
2022-08-19T10:19:25.798Z,30.93
2022-08-19T10:22:00.505Z,33.47
2022-08-19T10:24:29.420Z,34.10
2022-08-19T10:26:59.956Z,32.50
2022-08-19T10:29:33.001Z,36.40
2022-08-19T10:32:02.683Z,34.50
2022-08-19T10:34:33.001Z,33.73
2022-08-19T10:37:02.471Z,37.07
2022-08-19T10:39:32.664Z,28.93
2022-08-19T10:42:11.612Z,27.87
2022-08-19T10:44:40.786Z,30.97
2022-08-19T10:47:17.513Z,27.63
2022-08-19T10:50:12.291Z,27.63
2022-08-19T10:52:49.789Z,25.60
2022-08-19T10:55:38.214Z,27.97
2022-08-19T10:58:06.915Z,24.97
2022-08-19T11:00:38.982Z,23.50
2022-08-19T11:03:06.936Z,27.10
2022-08-19T11:05:40.075Z,34.30
2022-08-19T11:08:23.416Z,23.93
2022-08-19T11:10:54.858Z,19.67
2022-08-19T11:13:23.018Z,23.90
2022-08-19T11:16:01.712Z,20.47
2022-08-19T11:18:31.931Z,29.20
2022-08-19T11:21:08.078Z,23.67
2022-08-19T11:23:37.382Z,19.20
2022-08-19T11:26:05.426Z,18.73
2022-08-19T11:28:33.698Z,20.23
2022-08-19T11:31:02.738Z,20.03
2022-08-19T11:33:30.688Z,21.97
2022-08-19T11:36:01.298Z,19.07
2022-08-19T11:38:30.207Z,23.73
2022-08-19T11:41:01.759Z,20.67
2022-08-19T11:43:35.487Z,20.67
2022-08-19T11:46:08.148Z,19.23
2022-08-19T11:48:36.849Z,20.60
2022-08-19T11:51:08.639Z,24.13
2022-08-19T11:53:37.466Z,17.10
2022-08-19T11:56:09.447Z,17.27
2022-08-19T11:58:38.135Z,19.23
2022-08-19T12:01:09.144Z,20.77
2022-08-19T12:03:37.706Z,18.00
2022-08-19T12:06:07.703Z,12.90
2022-08-19T12:08:35.826Z,15.17
2022-08-19T12:11:04.258Z,14.73
2022-08-19T12:13:33.624Z,15.23
2022-08-19T12:16:02.155Z,16.97
2022-08-19T12:18:30.129Z,18.97
2022-08-19T12:20:58.457Z,15.60
2022-08-19T12:23:26.428Z,19.23
2022-08-19T12:25:56.006Z,16.07
2022-08-19T12:28:25.499Z,13.37
2022-08-19T12:30:55.214Z,14.50
2022-08-19T12:33:26.058Z,16.80
2022-08-19T12:35:54.451Z,17.10
2022-08-19T12:38:25.188Z,17.03
2022-08-19T12:40:58.323Z,13.57
2022-08-19T12:43:28.339Z,16.40
2022-08-19T12:45:57.688Z,16.73
2022-08-19T12:48:33.780Z,16.40
2022-08-19T12:51:09.536Z,19.87
2022-08-19T12:53:39.308Z,16.30
2022-08-19T12:56:12.148Z,14.03
2022-08-19T12:58:42.695Z,19.33
2022-08-19T13:01:22.051Z,14.30
2022-08-19T13:03:53.193Z,17.00
2022-08-19T13:06:21.790Z,15.90
2022-08-19T13:08:49.808Z,16.17
2022-08-19T13:11:20.307Z,15.17
2022-08-19T13:13:51.286Z,15.53
2022-08-19T13:16:23.324Z,14.63
2022-08-19T13:18:52.885Z,13.10
2022-08-19T13:21:23.185Z,11.57
2022-08-19T13:23:52.294Z,12.00
2022-08-19T13:26:21.339Z,13.17
2022-08-19T13:29:06.899Z,11.07
2022-08-19T13:31:58.847Z,14.43
2022-08-19T13:34:33.387Z,11.60
2022-08-19T13:37:03.954Z,12.40
2022-08-19T13:39:33.740Z,9.57
2022-08-19T13:42:01.799Z,13.90
2022-08-19T13:44:31.151Z,13.37
2022-08-19T13:47:07.019Z,8.80
2022-08-19T13:49:36.011Z,16.07
2022-08-19T13:52:04.945Z,9.20
2022-08-19T13:54:32.918Z,8.37
2022-08-19T13:57:01.419Z,8.23
2022-08-19T13:59:29.361Z,7.83
2022-08-19T14:02:00.461Z,7.73
2022-08-19T14:04:29.839Z,8.73
2022-08-19T14:06:57.787Z,8.60
2022-08-19T14:09:25.940Z,8.30
2022-08-19T14:11:53.962Z,6.67
2022-08-19T14:14:22.427Z,6.23
2022-08-19T14:16:50.978Z,7.00
2022-08-19T14:19:18.914Z,6.77
2022-08-19T14:21:48.375Z,12.43
2022-08-19T14:24:16.476Z,7.33
2022-08-19T14:26:44.666Z,9.40
2022-08-19T14:29:13.558Z,13.47
2022-08-19T14:31:44.024Z,11.03
2022-08-19T14:34:13.676Z,11.37
2022-08-19T14:36:42.900Z,12.30
2022-08-19T14:39:12.578Z,11.13
2022-08-19T14:41:43.298Z,12.63
2022-08-19T14:44:13.451Z,13.03
2022-08-19T14:46:48.563Z,13.67
2022-08-19T14:49:17.829Z,13.83
2022-08-19T14:51:48.210Z,11.53
2022-08-19T14:54:17.639Z,14.03
2022-08-19T14:56:46.269Z,14.13
2022-08-19T14:59:14.353Z,16.17
2022-08-19T15:01:42.832Z,13.07
2022-08-19T15:04:10.863Z,15.03
2022-08-19T15:06:39.599Z,14.93
2022-08-19T15:09:07.928Z,17.63
2022-08-19T15:11:38.447Z,16.10
2022-08-19T15:14:07.941Z,16.27
2022-08-19T15:16:35.903Z,15.30
2022-08-19T15:19:03.885Z,13.97
2022-08-19T15:21:32.501Z,17.57
2022-08-19T15:24:01.729Z,13.93
2022-08-19T15:26:33.413Z,18.93
2022-08-19T15:29:04.028Z,15.50
2022-08-19T15:31:35.540Z,15.20
2022-08-19T15:34:06.842Z,20.67
2022-08-19T15:36:35.716Z,15.63
2022-08-19T15:39:05.415Z,19.10
2022-08-19T15:41:33.872Z,16.77
2022-08-19T15:44:09.009Z,16.23
2022-08-19T15:46:39.717Z,16.47
2022-08-19T15:49:08.750Z,22.07
2022-08-19T15:51:37.928Z,20.97
2022-08-19T15:54:08.730Z,15.63
2022-08-19T15:56:58.277Z,23.10
2022-08-19T15:59:46.914Z,18.47
2022-08-19T16:02:34.005Z,15.67
2022-08-19T16:05:19.586Z,16.03
2022-08-19T16:07:49.009Z,15.37
2022-08-19T16:10:27.234Z,15.50
2022-08-19T16:12:57.978Z,16.37
2022-08-19T16:15:28.528Z,16.50
2022-08-19T16:17:57.953Z,19.37
2022-08-19T16:20:27.869Z,17.73
2022-08-19T16:22:56.585Z,18.70
2022-08-19T16:25:29.358Z,22.13
2022-08-19T16:28:07.680Z,27.43
2022-08-19T16:30:39.320Z,25.40
2022-08-19T16:33:08.782Z,23.47
2022-08-19T16:35:37.292Z,20.93
2022-08-19T16:38:07.313Z,23.20
2022-08-19T16:40:35.526Z,24.73
2022-08-19T16:43:04.156Z,27.07
2022-08-19T16:45:32.258Z,26.00
2022-08-19T16:48:02.033Z,27.70
2022-08-19T16:50:48.213Z,25.20
2022-08-19T16:53:17.808Z,28.90
2022-08-19T16:55:47.502Z,31.97
2022-08-19T16:58:15.853Z,31.47
2022-08-19T17:00:44.002Z,31.53
2022-08-19T17:03:15.205Z,31.83
2022-08-19T17:05:44.087Z,34.97
2022-08-19T17:08:12.480Z,38.40
2022-08-19T17:10:45.710Z,36.20
2022-08-19T17:13:26.819Z,37.43
2022-08-19T17:15:55.531Z,41.10
2022-08-19T17:18:26.199Z,38.03
2022-08-19T17:21:00.970Z,44.73
2022-08-19T17:23:42.474Z,40.07
2022-08-19T17:26:17.974Z,40.37
2022-08-19T17:28:49.847Z,48.27
2022-08-19T17:31:19.088Z,48.20
2022-08-19T17:33:49.064Z,45.77
2022-08-19T17:36:18.234Z,45.43
2022-08-19T17:38:47.145Z,36.63
2022-08-19T17:41:15.146Z,38.83
2022-08-19T17:43:44.170Z,40.03
2022-08-19T17:46:18.082Z,41.70
2022-08-19T17:48:52.086Z,40.33
2022-08-19T17:51:23.739Z,46.67
2022-08-19T17:53:53.647Z,37.63
2022-08-19T17:56:23.943Z,38.53
2022-08-19T17:58:59.911Z,33.70
2022-08-19T18:01:43.977Z,29.60
2022-08-19T18:04:20.140Z,36.47
2022-08-19T18:06:53.547Z,37.33
2022-08-19T18:09:24.583Z,31.63
2022-08-19T18:11:54.520Z,30.63
2022-08-19T18:14:32.149Z,33.70
2022-08-19T18:17:05.828Z,29.63
2022-08-19T18:19:41.460Z,28.30
2022-08-19T18:22:12.517Z,29.97
2022-08-19T18:24:41.680Z,20.53
2022-08-19T18:27:10.328Z,33.83
2022-08-19T18:29:40.172Z,29.33
2022-08-19T18:32:13.056Z,30.90
2022-08-19T18:34:44.138Z,37.80
2022-08-19T18:37:12.626Z,40.70
2022-08-19T18:39:58.204Z,40.47
2022-08-19T18:42:44.135Z,36.70
2022-08-19T18:45:29.884Z,32.40
2022-08-19T18:48:25.740Z,34.60
2022-08-19T18:50:58.258Z,38.87
2022-08-19T18:53:27.411Z,37.80
2022-08-19T18:55:55.772Z,35.77
2022-08-19T18:58:26.648Z,45.23
2022-08-19T19:00:57.446Z,28.37
2022-08-19T19:03:26.225Z,31.37
2022-08-19T19:05:54.803Z,35.30
2022-08-19T19:08:27.259Z,37.77
2022-08-19T19:10:56.415Z,35.70
2022-08-19T19:13:24.833Z,39.60
2022-08-19T19:15:54.462Z,36.57
2022-08-19T19:18:22.445Z,29.33
2022-08-19T19:20:50.842Z,49.47
2022-08-19T19:23:18.787Z,42.40
2022-08-19T19:25:50.696Z,27.00
2022-08-19T19:28:24.366Z,30.33
2022-08-19T19:30:53.879Z,26.73
2022-08-19T19:33:21.840Z,30.60
2022-08-19T19:35:50.388Z,32.83
2022-08-19T19:38:18.363Z,31.47
2022-08-19T19:40:47.679Z,29.90
2022-08-19T19:43:17.220Z,34.03
2022-08-19T19:45:45.387Z,30.47
2022-08-19T19:48:16.286Z,28.87
2022-08-19T19:50:46.243Z,31.27
2022-08-19T19:53:24.600Z,31.53
2022-08-19T19:55:59.225Z,25.90
2022-08-19T19:58:28.931Z,27.00
2022-08-19T20:00:58.937Z,43.67
2022-08-19T20:03:27.870Z,23.20
2022-08-19T20:05:59.834Z,21.47
2022-08-19T20:08:45.988Z,20.80
2022-08-19T20:11:31.781Z,19.57
2022-08-19T20:14:02.411Z,26.80
2022-08-19T20:16:31.643Z,26.93
2022-08-19T20:19:01.096Z,23.47
2022-08-19T20:21:33.137Z,27.63
2022-08-19T20:24:09.145Z,19.47
2022-08-19T20:26:40.990Z,18.80
2022-08-19T20:29:38.471Z,19.93
2022-08-19T20:31:59.451Z,25.33
2022-08-19T20:34:28.803Z,23.53
2022-08-19T20:36:56.914Z,30.17
2022-08-19T20:39:24.878Z,29.90
2022-08-19T20:41:56.781Z,24.33
2022-08-19T20:44:25.907Z,26.90
2022-08-19T20:46:57.511Z,25.40
2022-08-19T20:49:27.480Z,25.20
2022-08-19T20:51:56.630Z,22.33
2022-08-19T20:54:24.909Z,20.03
2022-08-19T20:56:54.703Z,19.20
2022-08-19T20:59:24.176Z,20.70
2022-08-19T21:01:53.074Z,20.23
2022-08-19T21:04:23.076Z,18.93
2022-08-19T21:06:51.959Z,25.20
2022-08-19T21:09:20.283Z,22.37
2022-08-19T21:11:49.070Z,26.00
2022-08-19T21:14:19.059Z,24.30
2022-08-19T21:16:47.091Z,19.47
2022-08-19T21:19:15.065Z,19.43
2022-08-19T21:21:43.019Z,19.00
2022-08-19T21:24:11.435Z,16.60
2022-08-19T21:26:39.439Z,19.80
2022-08-19T21:29:07.614Z,21.40
2022-08-19T21:31:37.373Z,18.60
2022-08-19T21:34:05.439Z,21.83
2022-08-19T21:36:33.806Z,19.57
2022-08-19T21:39:01.704Z,20.40
2022-08-19T21:41:29.670Z,19.13
2022-08-19T21:43:58.348Z,21.80
2022-08-19T21:46:26.365Z,19.10
2022-08-19T21:48:56.201Z,16.23
2022-08-19T21:51:24.207Z,19.07
2022-08-19T21:53:52.979Z,16.30
2022-08-19T21:56:21.599Z,16.93
2022-08-19T21:58:49.795Z,17.00
2022-08-19T22:01:18.846Z,16.20
2022-08-19T22:03:46.858Z,20.43
2022-08-19T22:06:16.390Z,18.20
2022-08-19T22:08:45.271Z,13.67
2022-08-19T22:11:13.216Z,19.33
2022-08-19T22:13:41.654Z,18.30
2022-08-19T22:16:10.095Z,14.73
2022-08-19T22:18:38.111Z,13.60
2022-08-19T22:21:11.666Z,11.50
2022-08-19T22:23:41.783Z,9.67
2022-08-19T22:26:10.309Z,10.70
2022-08-19T22:28:39.516Z,10.83
2022-08-19T22:31:08.194Z,11.87
2022-08-19T22:33:36.959Z,13.50
2022-08-19T22:36:07.959Z,16.00
2022-08-19T22:38:37.708Z,16.20
2022-08-19T22:41:08.134Z,15.97
2022-08-19T22:43:37.577Z,18.60
2022-08-19T22:46:17.249Z,14.80
2022-08-19T22:48:47.328Z,17.07
2022-08-19T22:51:32.682Z,16.13
2022-08-19T22:54:01.472Z,14.17
2022-08-19T22:56:32.021Z,17.67
2022-08-19T22:59:00.538Z,15.63
2022-08-19T23:01:30.570Z,21.27
2022-08-19T23:04:03.660Z,24.77
2022-08-19T23:06:33.794Z,19.27
2022-08-19T23:09:04.844Z,23.83
2022-08-19T23:11:39.866Z,28.70
2022-08-19T23:14:11.671Z,20.93
2022-08-19T23:16:41.600Z,22.33
2022-08-19T23:19:10.273Z,22.70
2022-08-19T23:21:38.946Z,23.77
2022-08-19T23:24:07.463Z,19.30
2022-08-19T23:26:37.189Z,23.70
2022-08-19T23:29:24.784Z,22.13
2022-08-19T23:31:52.728Z,20.93
2022-08-19T23:34:21.166Z,25.93
2022-08-19T23:36:51.285Z,27.50
2022-08-19T23:39:19.426Z,22.23
2022-08-19T23:41:49.392Z,22.93
2022-08-19T23:44:17.460Z,26.13
2022-08-19T23:46:54.749Z,31.33
2022-08-19T23:49:25.738Z,26.40
2022-08-19T23:51:55.087Z,30.77
2022-08-19T23:54:34.411Z,32.20
2022-08-19T23:57:14.444Z,24.43
2022-08-19T23:59:45.846Z,28.40
